sensor_id;sensor_type;location;lat;lon;timestamp;P1;durP1;ratioP1;P2;durP2;ratioP2
23470;SDS011;11908;50.806;4.424;2024-03-25T00:01:59;14.80;;;8.35;;
23470;SDS011;11908;50.806;4.424;2024-03-25T00:04:25;12.25;;;7.40;;
23470;SDS011;11908;50.806;4.424;2024-03-25T00:06:51;12.77;;;7.70;;
23470;SDS011;11908;50.806;4.424;2024-03-25T00:09:18;12.15;;;7.25;;
23470;SDS011;11908;50.806;4.424;2024-03-25T00:11:43;12.20;;;7.45;;
23470;SDS011;11908;50.806;4.424;2024-03-25T00:14:09;10.82;;;7.30;;
23470;SDS011;11908;50.806;4.424;2024-03-25T00:16:35;10.02;;;7.32;;
23470;SDS011;11908;50.806;4.424;2024-03-25T00:19:02;15.55;;;8.57;;
23470;SDS011;11908;50.806;4.424;2024-03-25T00:21:27;14.07;;;8.25;;
23470;SDS011;11908;50.806;4.424;2024-03-25T00:23:53;11.77;;;7.28;;
23470;SDS011;11908;50.806;4.424;2024-03-25T00:26:22;13.20;;;6.97;;
23470;SDS011;11908;50.806;4.424;2024-03-25T00:28:48;12.25;;;7.97;;
23470;SDS011;11908;50.806;4.424;2024-03-25T00:31:14;11.35;;;7.95;;
23470;SDS011;11908;50.806;4.424;2024-03-25T00:33:40;12.07;;;7.25;;
23470;SDS011;11908;50.806;4.424;2024-03-25T00:36:05;12.30;;;7.35;;
23470;SDS011;11908;50.806;4.424;2024-03-25T00:38:32;12.45;;;6.75;;
23470;SDS011;11908;50.806;4.424;2024-03-25T00:40:58;11.27;;;6.85;;
23470;SDS011;11908;50.806;4.424;2024-03-25T00:43:24;11.13;;;7.05;;
23470;SDS011;11908;50.806;4.424;2024-03-25T00:45:49;8.10;;;6.60;;
23470;SDS011;11908;50.806;4.424;2024-03-25T00:48:15;12.35;;;7.65;;
23470;SDS011;11908;50.806;4.424;2024-03-25T00:50:41;14.45;;;7.60;;
23470;SDS011;11908;50.806;4.424;2024-03-25T00:53:06;10.45;;;7.55;;
23470;SDS011;11908;50.806;4.424;2024-03-25T00:55:33;10.48;;;7.18;;
23470;SDS011;11908;50.806;4.424;2024-03-25T00:58:01;17.08;;;7.97;;
23470;SDS011;11908;50.806;4.424;2024-03-25T01:00:27;11.55;;;7.50;;
23470;SDS011;11908;50.806;4.424;2024-03-25T01:02:53;11.80;;;7.00;;
23470;SDS011;11908;50.806;4.424;2024-03-25T01:05:18;13.88;;;7.65;;
23470;SDS011;11908;50.806;4.424;2024-03-25T01:07:44;12.10;;;7.13;;
23470;SDS011;11908;50.806;4.424;2024-03-25T01:10:10;13.30;;;6.85;;
23470;SDS011;11908;50.806;4.424;2024-03-25T01:12:37;14.00;;;7.25;;
23470;SDS011;11908;50.806;4.424;2024-03-25T01:15:03;15.50;;;7.05;;
23470;SDS011;11908;50.806;4.424;2024-03-25T01:17:30;11.05;;;6.55;;
23470;SDS011;11908;50.806;4.424;2024-03-25T01:19:56;12.88;;;7.25;;
23470;SDS011;11908;50.806;4.424;2024-03-25T01:22:21;14.90;;;6.88;;
23470;SDS011;11908;50.806;4.424;2024-03-25T01:24:47;9.48;;;6.25;;
23470;SDS011;11908;50.806;4.424;2024-03-25T01:27:12;10.82;;;6.88;;
23470;SDS011;11908;50.806;4.424;2024-03-25T01:29:38;9.82;;;6.63;;
23470;SDS011;11908;50.806;4.424;2024-03-25T01:32:04;13.80;;;7.05;;
23470;SDS011;11908;50.806;4.424;2024-03-25T01:34:30;13.55;;;6.25;;
23470;SDS011;11908;50.806;4.424;2024-03-25T01:36:56;12.07;;;6.85;;
23470;SDS011;11908;50.806;4.424;2024-03-25T01:39:22;9.75;;;6.30;;
23470;SDS011;11908;50.806;4.424;2024-03-25T01:41:49;10.93;;;6.60;;
23470;SDS011;11908;50.806;4.424;2024-03-25T01:44:15;12.77;;;6.72;;
23470;SDS011;11908;50.806;4.424;2024-03-25T01:46:41;10.77;;;6.20;;
23470;SDS011;11908;50.806;4.424;2024-03-25T01:49:08;11.30;;;6.28;;
23470;SDS011;11908;50.806;4.424;2024-03-25T01:51:34;9.80;;;5.55;;
23470;SDS011;11908;50.806;4.424;2024-03-25T01:54:01;8.30;;;5.88;;
23470;SDS011;11908;50.806;4.424;2024-03-25T01:56:29;8.05;;;5.57;;
23470;SDS011;11908;50.806;4.424;2024-03-25T01:58:56;11.88;;;6.10;;
23470;SDS011;11908;50.806;4.424;2024-03-25T02:04:16;8.38;;;6.03;;
23470;SDS011;11908;50.806;4.424;2024-03-25T02:06:42;10.98;;;6.05;;
23470;SDS011;11908;50.806;4.424;2024-03-25T02:09:09;11.70;;;5.95;;
23470;SDS011;11908;50.806;4.424;2024-03-25T02:11:37;8.38;;;5.82;;
23470;SDS011;11908;50.806;4.424;2024-03-25T02:14:04;11.57;;;6.68;;
23470;SDS011;11908;50.806;4.424;2024-03-25T02:16:31;9.43;;;6.22;;
23470;SDS011;11908;50.806;4.424;2024-03-25T02:18:56;12.65;;;5.93;;
23470;SDS011;11908;50.806;4.424;2024-03-25T02:21:22;12.05;;;6.00;;
23470;SDS011;11908;50.806;4.424;2024-03-25T02:23:48;12.60;;;5.45;;
23470;SDS011;11908;50.806;4.424;2024-03-25T02:26:17;8.68;;;5.30;;
23470;SDS011;11908;50.806;4.424;2024-03-25T02:28:43;15.88;;;5.82;;
23470;SDS011;11908;50.806;4.424;2024-03-25T02:31:09;14.00;;;6.30;;
23470;SDS011;11908;50.806;4.424;2024-03-25T02:33:34;10.77;;;5.93;;
23470;SDS011;11908;50.806;4.424;2024-03-25T02:36:00;9.60;;;6.00;;
23470;SDS011;11908;50.806;4.424;2024-03-25T02:38:26;16.67;;;6.15;;
23470;SDS011;11908;50.806;4.424;2024-03-25T02:40:52;10.40;;;6.85;;
23470;SDS011;11908;50.806;4.424;2024-03-25T02:43:18;10.32;;;5.90;;
23470;SDS011;11908;50.806;4.424;2024-03-25T02:45:46;11.27;;;6.03;;
23470;SDS011;11908;50.806;4.424;2024-03-25T02:48:12;8.27;;;5.82;;
23470;SDS011;11908;50.806;4.424;2024-03-25T02:50:37;10.20;;;6.00;;
23470;SDS011;11908;50.806;4.424;2024-03-25T02:53:03;10.57;;;6.40;;
23470;SDS011;11908;50.806;4.424;2024-03-25T02:55:29;13.45;;;6.18;;
23470;SDS011;11908;50.806;4.424;2024-03-25T02:57:54;15.07;;;6.60;;
23470;SDS011;11908;50.806;4.424;2024-03-25T03:00:20;10.45;;;5.75;;
23470;SDS011;11908;50.806;4.424;2024-03-25T03:02:46;10.77;;;6.00;;
23470;SDS011;11908;50.806;4.424;2024-03-25T03:05:11;15.40;;;6.88;;
23470;SDS011;11908;50.806;4.424;2024-03-25T03:07:37;11.10;;;6.55;;
23470;SDS011;11908;50.806;4.424;2024-03-25T03:10:03;12.23;;;6.97;;
23470;SDS011;11908;50.806;4.424;2024-03-25T03:12:29;12.35;;;6.47;;
23470;SDS011;11908;50.806;4.424;2024-03-25T03:14:55;15.35;;;6.78;;
23470;SDS011;11908;50.806;4.424;2024-03-25T03:17:20;17.15;;;7.20;;
23470;SDS011;11908;50.806;4.424;2024-03-25T03:19:46;13.90;;;7.30;;
23470;SDS011;11908;50.806;4.424;2024-03-25T03:22:12;12.27;;;6.22;;
23470;SDS011;11908;50.806;4.424;2024-03-25T03:24:37;14.38;;;7.03;;
23470;SDS011;11908;50.806;4.424;2024-03-25T03:27:03;13.82;;;6.63;;
23470;SDS011;11908;50.806;4.424;2024-03-25T03:29:29;11.63;;;6.65;;
23470;SDS011;11908;50.806;4.424;2024-03-25T03:31:54;12.27;;;6.22;;
23470;SDS011;11908;50.806;4.424;2024-03-25T03:34:20;12.45;;;6.03;;
23470;SDS011;11908;50.806;4.424;2024-03-25T03:36:46;11.55;;;6.10;;
23470;SDS011;11908;50.806;4.424;2024-03-25T03:39:12;14.13;;;6.20;;
23470;SDS011;11908;50.806;4.424;2024-03-25T03:41:38;16.08;;;6.47;;
23470;SDS011;11908;50.806;4.424;2024-03-25T03:44:04;11.98;;;5.90;;
23470;SDS011;11908;50.806;4.424;2024-03-25T03:46:30;10.23;;;6.35;;
23470;SDS011;11908;50.806;4.424;2024-03-25T03:48:55;12.85;;;6.32;;
23470;SDS011;11908;50.806;4.424;2024-03-25T03:51:21;14.57;;;6.63;;
23470;SDS011;11908;50.806;4.424;2024-03-25T03:53:47;15.23;;;7.05;;
23470;SDS011;11908;50.806;4.424;2024-03-25T03:56:12;11.20;;;7.05;;
23470;SDS011;11908;50.806;4.424;2024-03-25T03:58:38;12.80;;;7.30;;
23470;SDS011;11908;50.806;4.424;2024-03-25T04:01:04;14.88;;;7.10;;
23470;SDS011;11908;50.806;4.424;2024-03-25T04:03:30;18.85;;;7.22;;
23470;SDS011;11908;50.806;4.424;2024-03-25T04:05:55;18.10;;;7.28;;
23470;SDS011;11908;50.806;4.424;2024-03-25T04:08:21;20.20;;;7.82;;
23470;SDS011;11908;50.806;4.424;2024-03-25T04:10:47;16.40;;;7.85;;
23470;SDS011;11908;50.806;4.424;2024-03-25T04:13:13;19.60;;;7.07;;
23470;SDS011;11908;50.806;4.424;2024-03-25T04:15:39;18.70;;;7.65;;
23470;SDS011;11908;50.806;4.424;2024-03-25T04:18:05;16.67;;;7.15;;
23470;SDS011;11908;50.806;4.424;2024-03-25T04:20:38;17.00;;;7.72;;
23470;SDS011;11908;50.806;4.424;2024-03-25T04:23:05;12.82;;;7.40;;
23470;SDS011;11908;50.806;4.424;2024-03-25T04:25:32;19.52;;;7.45;;
23470;SDS011;11908;50.806;4.424;2024-03-25T04:27:58;20.92;;;7.90;;
23470;SDS011;11908;50.806;4.424;2024-03-25T04:30:24;21.38;;;7.78;;
23470;SDS011;11908;50.806;4.424;2024-03-25T04:32:50;18.85;;;8.48;;
23470;SDS011;11908;50.806;4.424;2024-03-25T04:35:16;13.35;;;8.13;;
23470;SDS011;11908;50.806;4.424;2024-03-25T04:37:41;20.48;;;8.43;;
23470;SDS011;11908;50.806;4.424;2024-03-25T04:40:07;17.67;;;8.43;;
23470;SDS011;11908;50.806;4.424;2024-03-25T04:42:33;24.70;;;8.38;;
23470;SDS011;11908;50.806;4.424;2024-03-25T04:44:59;21.88;;;8.55;;
23470;SDS011;11908;50.806;4.424;2024-03-25T04:47:24;19.88;;;8.55;;
23470;SDS011;11908;50.806;4.424;2024-03-25T04:49:50;21.20;;;7.85;;
23470;SDS011;11908;50.806;4.424;2024-03-25T04:52:16;18.98;;;8.18;;
23470;SDS011;11908;50.806;4.424;2024-03-25T04:54:43;21.52;;;9.15;;
23470;SDS011;11908;50.806;4.424;2024-03-25T04:57:09;19.95;;;8.52;;
23470;SDS011;11908;50.806;4.424;2024-03-25T04:59:34;22.38;;;9.02;;
23470;SDS011;11908;50.806;4.424;2024-03-25T05:02:00;18.95;;;8.38;;
23470;SDS011;11908;50.806;4.424;2024-03-25T05:04:26;21.77;;;9.25;;
23470;SDS011;11908;50.806;4.424;2024-03-25T05:06:52;22.15;;;9.48;;
23470;SDS011;11908;50.806;4.424;2024-03-25T05:09:18;23.75;;;9.82;;
23470;SDS011;11908;50.806;4.424;2024-03-25T05:11:45;23.75;;;10.05;;
23470;SDS011;11908;50.806;4.424;2024-03-25T05:14:11;26.83;;;10.88;;
23470;SDS011;11908;50.806;4.424;2024-03-25T05:16:36;31.02;;;11.07;;
23470;SDS011;11908;50.806;4.424;2024-03-25T05:19:02;25.88;;;11.07;;
23470;SDS011;11908;50.806;4.424;2024-03-25T05:21:31;27.92;;;10.40;;
23470;SDS011;11908;50.806;4.424;2024-03-25T05:23:57;26.63;;;10.93;;
23470;SDS011;11908;50.806;4.424;2024-03-25T05:26:23;27.70;;;11.18;;
23470;SDS011;11908;50.806;4.424;2024-03-25T05:28:53;21.70;;;10.27;;
23470;SDS011;11908;50.806;4.424;2024-03-25T05:31:19;18.35;;;9.98;;
23470;SDS011;11908;50.806;4.424;2024-03-25T05:33:44;26.80;;;11.52;;
23470;SDS011;11908;50.806;4.424;2024-03-25T05:36:10;25.08;;;10.02;;
23470;SDS011;11908;50.806;4.424;2024-03-25T05:38:36;22.17;;;10.00;;
23470;SDS011;11908;50.806;4.424;2024-03-25T05:41:01;23.63;;;11.10;;
23470;SDS011;11908;50.806;4.424;2024-03-25T05:43:27;21.08;;;10.02;;
23470;SDS011;11908;50.806;4.424;2024-03-25T05:45:53;22.60;;;10.07;;
23470;SDS011;11908;50.806;4.424;2024-03-25T05:48:19;28.73;;;11.07;;
23470;SDS011;11908;50.806;4.424;2024-03-25T05:50:45;29.02;;;11.32;;
23470;SDS011;11908;50.806;4.424;2024-03-25T05:53:11;24.33;;;11.68;;
23470;SDS011;11908;50.806;4.424;2024-03-25T05:55:37;30.73;;;12.48;;
23470;SDS011;11908;50.806;4.424;2024-03-25T05:58:03;29.08;;;11.50;;
23470;SDS011;11908;50.806;4.424;2024-03-25T06:00:29;24.85;;;11.52;;
23470;SDS011;11908;50.806;4.424;2024-03-25T06:02:58;23.73;;;12.35;;
23470;SDS011;11908;50.806;4.424;2024-03-25T06:05:23;27.50;;;11.68;;
23470;SDS011;11908;50.806;4.424;2024-03-25T06:07:49;23.50;;;12.20;;
23470;SDS011;11908;50.806;4.424;2024-03-25T06:10:15;31.02;;;12.52;;
23470;SDS011;11908;50.806;4.424;2024-03-25T06:12:41;23.85;;;11.68;;
23470;SDS011;11908;50.806;4.424;2024-03-25T06:15:07;19.80;;;10.50;;
23470;SDS011;11908;50.806;4.424;2024-03-25T06:17:33;30.10;;;12.02;;
23470;SDS011;11908;50.806;4.424;2024-03-25T06:19:59;24.83;;;10.32;;
23470;SDS011;11908;50.806;4.424;2024-03-25T06:22:24;28.55;;;10.88;;
23470;SDS011;11908;50.806;4.424;2024-03-25T06:24:51;25.58;;;10.88;;
23470;SDS011;11908;50.806;4.424;2024-03-25T06:27:16;18.58;;;10.00;;
23470;SDS011;11908;50.806;4.424;2024-03-25T06:29:42;19.50;;;10.68;;
23470;SDS011;11908;50.806;4.424;2024-03-25T06:32:08;21.88;;;10.77;;
23470;SDS011;11908;50.806;4.424;2024-03-25T06:34:52;26.40;;;11.48;;
23470;SDS011;11908;50.806;4.424;2024-03-25T06:37:18;22.23;;;11.85;;
23470;SDS011;11908;50.806;4.424;2024-03-25T06:39:44;27.05;;;12.50;;
23470;SDS011;11908;50.806;4.424;2024-03-25T06:42:10;24.65;;;12.23;;
23470;SDS011;11908;50.806;4.424;2024-03-25T06:44:35;27.55;;;11.85;;
23470;SDS011;11908;50.806;4.424;2024-03-25T06:47:01;29.88;;;11.77;;
23470;SDS011;11908;50.806;4.424;2024-03-25T06:49:27;26.23;;;12.68;;
23470;SDS011;11908;50.806;4.424;2024-03-25T06:51:53;23.48;;;12.02;;
23470;SDS011;11908;50.806;4.424;2024-03-25T06:54:19;27.33;;;11.77;;
23470;SDS011;11908;50.806;4.424;2024-03-25T06:56:45;25.77;;;11.02;;
23470;SDS011;11908;50.806;4.424;2024-03-25T06:59:10;29.85;;;12.07;;
23470;SDS011;11908;50.806;4.424;2024-03-25T07:01:36;26.15;;;10.77;;
23470;SDS011;11908;50.806;4.424;2024-03-25T07:04:02;26.75;;;11.50;;
23470;SDS011;11908;50.806;4.424;2024-03-25T07:06:28;28.35;;;10.18;;
23470;SDS011;11908;50.806;4.424;2024-03-25T07:08:53;25.20;;;10.35;;
23470;SDS011;11908;50.806;4.424;2024-03-25T07:11:20;29.55;;;11.40;;
23470;SDS011;11908;50.806;4.424;2024-03-25T07:13:45;16.40;;;9.25;;
23470;SDS011;11908;50.806;4.424;2024-03-25T07:16:11;24.67;;;10.25;;
23470;SDS011;11908;50.806;4.424;2024-03-25T07:18:36;24.88;;;10.57;;
23470;SDS011;11908;50.806;4.424;2024-03-25T07:21:02;28.02;;;10.68;;
23470;SDS011;11908;50.806;4.424;2024-03-25T07:23:28;20.98;;;9.35;;
23470;SDS011;11908;50.806;4.424;2024-03-25T07:25:54;27.08;;;10.35;;
23470;SDS011;11908;50.806;4.424;2024-03-25T07:28:20;22.05;;;9.20;;
23470;SDS011;11908;50.806;4.424;2024-03-25T07:30:45;21.33;;;9.55;;
23470;SDS011;11908;50.806;4.424;2024-03-25T07:33:12;26.70;;;10.50;;
23470;SDS011;11908;50.806;4.424;2024-03-25T07:35:37;18.85;;;9.30;;
23470;SDS011;11908;50.806;4.424;2024-03-25T07:38:03;19.02;;;8.63;;
23470;SDS011;11908;50.806;4.424;2024-03-25T07:40:29;21.90;;;8.45;;
23470;SDS011;11908;50.806;4.424;2024-03-25T07:42:54;20.15;;;8.80;;
23470;SDS011;11908;50.806;4.424;2024-03-25T07:45:21;20.73;;;8.13;;
23470;SDS011;11908;50.806;4.424;2024-03-25T07:47:47;23.83;;;8.00;;
23470;SDS011;11908;50.806;4.424;2024-03-25T07:50:12;26.15;;;8.23;;
23470;SDS011;11908;50.806;4.424;2024-03-25T07:52:38;23.13;;;8.55;;
23470;SDS011;11908;50.806;4.424;2024-03-25T07:55:07;15.57;;;8.07;;
23470;SDS011;11908;50.806;4.424;2024-03-25T07:57:33;23.50;;;8.15;;
23470;SDS011;11908;50.806;4.424;2024-03-25T07:59:59;18.52;;;7.10;;
23470;SDS011;11908;50.806;4.424;2024-03-25T08:02:25;21.90;;;7.97;;
23470;SDS011;11908;50.806;4.424;2024-03-25T08:04:51;21.23;;;7.72;;
23470;SDS011;11908;50.806;4.424;2024-03-25T08:07:16;21.30;;;8.18;;
23470;SDS011;11908;50.806;4.424;2024-03-25T08:09:42;20.55;;;7.65;;
23470;SDS011;11908;50.806;4.424;2024-03-25T08:12:08;19.60;;;7.32;;
23470;SDS011;11908;50.806;4.424;2024-03-25T08:14:33;19.88;;;7.65;;
23470;SDS011;11908;50.806;4.424;2024-03-25T08:16:59;18.63;;;7.00;;
23470;SDS011;11908;50.806;4.424;2024-03-25T08:19:25;18.63;;;7.15;;
23470;SDS011;11908;50.806;4.424;2024-03-25T08:21:51;18.67;;;6.47;;
23470;SDS011;11908;50.806;4.424;2024-03-25T08:24:16;15.55;;;7.28;;
23470;SDS011;11908;50.806;4.424;2024-03-25T08:26:42;14.98;;;6.68;;
23470;SDS011;11908;50.806;4.424;2024-03-25T08:29:07;13.00;;;5.85;;
23470;SDS011;11908;50.806;4.424;2024-03-25T08:31:33;18.88;;;6.18;;
23470;SDS011;11908;50.806;4.424;2024-03-25T08:33:59;19.80;;;6.88;;
23470;SDS011;11908;50.806;4.424;2024-03-25T08:36:24;13.77;;;5.43;;
23470;SDS011;11908;50.806;4.424;2024-03-25T08:38:50;16.10;;;6.32;;
23470;SDS011;11908;50.806;4.424;2024-03-25T08:41:16;14.75;;;5.95;;
23470;SDS011;11908;50.806;4.424;2024-03-25T08:43:41;16.50;;;5.40;;
23470;SDS011;11908;50.806;4.424;2024-03-25T08:46:07;11.05;;;5.45;;
23470;SDS011;11908;50.806;4.424;2024-03-25T08:48:33;11.63;;;5.57;;
23470;SDS011;11908;50.806;4.424;2024-03-25T08:50:58;15.50;;;5.35;;
23470;SDS011;11908;50.806;4.424;2024-03-25T08:53:24;13.32;;;5.63;;
23470;SDS011;11908;50.806;4.424;2024-03-25T08:55:50;10.90;;;5.85;;
23470;SDS011;11908;50.806;4.424;2024-03-25T08:58:15;13.30;;;5.68;;
23470;SDS011;11908;50.806;4.424;2024-03-25T09:00:41;9.70;;;5.18;;
23470;SDS011;11908;50.806;4.424;2024-03-25T09:03:08;13.13;;;5.57;;
23470;SDS011;11908;50.806;4.424;2024-03-25T09:05:33;12.57;;;5.78;;
23470;SDS011;11908;50.806;4.424;2024-03-25T09:08:00;13.55;;;5.45;;
23470;SDS011;11908;50.806;4.424;2024-03-25T09:10:26;12.15;;;5.40;;
23470;SDS011;11908;50.806;4.424;2024-03-25T09:13:10;9.90;;;5.68;;
23470;SDS011;11908;50.806;4.424;2024-03-25T09:15:36;11.18;;;4.72;;
23470;SDS011;11908;50.806;4.424;2024-03-25T09:18:02;10.45;;;5.10;;
23470;SDS011;11908;50.806;4.424;2024-03-25T09:20:28;9.73;;;5.05;;
23470;SDS011;11908;50.806;4.424;2024-03-25T09:22:53;12.25;;;5.30;;
23470;SDS011;11908;50.806;4.424;2024-03-25T09:25:19;10.70;;;5.00;;
23470;SDS011;11908;50.806;4.424;2024-03-25T09:27:45;14.15;;;5.22;;
23470;SDS011;11908;50.806;4.424;2024-03-25T09:30:11;9.88;;;4.85;;
23470;SDS011;11908;50.806;4.424;2024-03-25T09:32:38;11.48;;;6.72;;
23470;SDS011;11908;50.806;4.424;2024-03-25T09:35:08;8.48;;;4.28;;
23470;SDS011;11908;50.806;4.424;2024-03-25T09:37:34;17.60;;;5.57;;
23470;SDS011;11908;50.806;4.424;2024-03-25T09:40:00;12.63;;;5.32;;
23470;SDS011;11908;50.806;4.424;2024-03-25T09:42:26;9.75;;;5.07;;
23470;SDS011;11908;50.806;4.424;2024-03-25T09:44:56;11.95;;;4.95;;
23470;SDS011;11908;50.806;4.424;2024-03-25T09:47:22;11.35;;;5.00;;
23470;SDS011;11908;50.806;4.424;2024-03-25T09:49:48;10.40;;;4.53;;
23470;SDS011;11908;50.806;4.424;2024-03-25T09:52:15;9.27;;;3.85;;
23470;SDS011;11908;50.806;4.424;2024-03-25T09:54:41;8.15;;;3.67;;
23470;SDS011;11908;50.806;4.424;2024-03-25T09:57:07;9.25;;;4.00;;
23470;SDS011;11908;50.806;4.424;2024-03-25T09:59:33;8.90;;;4.00;;
23470;SDS011;11908;50.806;4.424;2024-03-25T10:01:59;9.57;;;4.13;;
23470;SDS011;11908;50.806;4.424;2024-03-25T10:04:27;10.85;;;3.58;;
23470;SDS011;11908;50.806;4.424;2024-03-25T10:06:53;10.32;;;4.50;;
23470;SDS011;11908;50.806;4.424;2024-03-25T10:09:22;8.85;;;4.03;;
23470;SDS011;11908;50.806;4.424;2024-03-25T10:11:50;11.50;;;4.10;;
23470;SDS011;11908;50.806;4.424;2024-03-25T10:14:16;8.10;;;3.30;;
23470;SDS011;11908;50.806;4.424;2024-03-25T10:16:43;9.05;;;3.45;;
23470;SDS011;11908;50.806;4.424;2024-03-25T10:19:09;8.82;;;3.80;;
23470;SDS011;11908;50.806;4.424;2024-03-25T10:21:34;8.18;;;3.17;;
23470;SDS011;11908;50.806;4.424;2024-03-25T10:24:01;10.43;;;3.67;;
23470;SDS011;11908;50.806;4.424;2024-03-25T10:26:30;10.02;;;3.55;;
23470;SDS011;11908;50.806;4.424;2024-03-25T10:29:03;10.45;;;4.00;;
23470;SDS011;11908;50.806;4.424;2024-03-25T10:31:31;6.43;;;3.22;;
23470;SDS011;11908;50.806;4.424;2024-03-25T10:33:57;8.93;;;3.30;;
23470;SDS011;11908;50.806;4.424;2024-03-25T10:36:23;6.20;;;2.58;;
23470;SDS011;11908;50.806;4.424;2024-03-25T10:39:01;5.80;;;2.22;;
23470;SDS011;11908;50.806;4.424;2024-03-25T10:41:27;6.88;;;2.15;;
23470;SDS011;11908;50.806;4.424;2024-03-25T10:43:54;7.78;;;3.08;;
23470;SDS011;11908;50.806;4.424;2024-03-25T10:46:22;10.60;;;3.20;;
23470;SDS011;11908;50.806;4.424;2024-03-25T10:49:32;8.40;;;2.85;;
23470;SDS011;11908;50.806;4.424;2024-03-25T10:51:45;8.10;;;2.60;;
23470;SDS011;11908;50.806;4.424;2024-03-25T10:54:12;5.10;;;2.10;;
23470;SDS011;11908;50.806;4.424;2024-03-25T10:56:39;3.55;;;2.10;;
23470;SDS011;11908;50.806;4.424;2024-03-25T10:59:04;9.45;;;2.45;;
23470;SDS011;11908;50.806;4.424;2024-03-25T11:01:34;6.45;;;2.35;;
23470;SDS011;11908;50.806;4.424;2024-03-25T11:04:00;6.25;;;2.58;;
23470;SDS011;11908;50.806;4.424;2024-03-25T11:06:26;4.75;;;2.25;;
23470;SDS011;11908;50.806;4.424;2024-03-25T11:08:55;10.68;;;2.90;;
23470;SDS011;11908;50.806;4.424;2024-03-25T11:11:22;9.48;;;3.58;;
23470;SDS011;11908;50.806;4.424;2024-03-25T11:13:48;10.18;;;3.00;;
23470;SDS011;11908;50.806;4.424;2024-03-25T11:16:25;7.97;;;2.83;;
23470;SDS011;11908;50.806;4.424;2024-03-25T11:18:53;7.78;;;2.80;;
23470;SDS011;11908;50.806;4.424;2024-03-25T11:21:24;7.05;;;2.28;;
23470;SDS011;11908;50.806;4.424;2024-03-25T11:23:50;6.95;;;2.15;;
23470;SDS011;11908;50.806;4.424;2024-03-25T11:26:20;5.78;;;1.98;;
23470;SDS011;11908;50.806;4.424;2024-03-25T11:28:50;8.18;;;2.85;;
23470;SDS011;11908;50.806;4.424;2024-03-25T11:31:18;5.03;;;2.20;;
23470;SDS011;11908;50.806;4.424;2024-03-25T11:33:50;6.05;;;2.40;;
23470;SDS011;11908;50.806;4.424;2024-03-25T11:36:15;7.10;;;2.63;;
23470;SDS011;11908;50.806;4.424;2024-03-25T11:38:43;5.75;;;2.38;;
23470;SDS011;11908;50.806;4.424;2024-03-25T11:41:12;7.13;;;2.17;;
23470;SDS011;11908;50.806;4.424;2024-03-25T11:43:39;7.43;;;2.40;;
23470;SDS011;11908;50.806;4.424;2024-03-25T11:46:06;5.75;;;2.03;;
23470;SDS011;11908;50.806;4.424;2024-03-25T11:48:32;2.92;;;1.85;;
23470;SDS011;11908;50.806;4.424;2024-03-25T11:50:58;5.68;;;2.38;;
23470;SDS011;11908;50.806;4.424;2024-03-25T11:53:25;3.72;;;2.47;;
23470;SDS011;11908;50.806;4.424;2024-03-25T11:55:52;6.43;;;2.40;;
23470;SDS011;11908;50.806;4.424;2024-03-25T11:58:18;6.40;;;2.55;;
23470;SDS011;11908;50.806;4.424;2024-03-25T12:00:44;8.15;;;2.22;;
23470;SDS011;11908;50.806;4.424;2024-03-25T12:03:16;4.57;;;2.10;;
23470;SDS011;11908;50.806;4.424;2024-03-25T12:05:45;6.38;;;2.15;;
23470;SDS011;11908;50.806;4.424;2024-03-25T12:08:11;9.57;;;1.90;;
23470;SDS011;11908;50.806;4.424;2024-03-25T12:10:38;5.05;;;1.90;;
23470;SDS011;11908;50.806;4.424;2024-03-25T12:13:23;6.57;;;1.98;;
23470;SDS011;11908;50.806;4.424;2024-03-25T12:15:50;3.22;;;1.90;;
23470;SDS011;11908;50.806;4.424;2024-03-25T12:18:16;5.63;;;1.98;;
23470;SDS011;11908;50.806;4.424;2024-03-25T12:20:45;4.40;;;1.90;;
23470;SDS011;11908;50.806;4.424;2024-03-25T12:23:10;5.30;;;2.00;;
23470;SDS011;11908;50.806;4.424;2024-03-25T12:25:36;3.88;;;1.85;;
23470;SDS011;11908;50.806;4.424;2024-03-25T12:28:07;6.78;;;2.22;;
23470;SDS011;11908;50.806;4.424;2024-03-25T12:30:40;4.65;;;2.00;;
23470;SDS011;11908;50.806;4.424;2024-03-25T12:33:17;6.90;;;1.83;;
23470;SDS011;11908;50.806;4.424;2024-03-25T12:35:48;5.78;;;1.73;;
23470;SDS011;11908;50.806;4.424;2024-03-25T12:38:21;4.50;;;1.55;;
23470;SDS011;11908;50.806;4.424;2024-03-25T12:40:47;4.95;;;1.63;;
23470;SDS011;11908;50.806;4.424;2024-03-25T12:43:15;2.42;;;1.25;;
23470;SDS011;11908;50.806;4.424;2024-03-25T12:45:41;3.85;;;1.30;;
23470;SDS011;11908;50.806;4.424;2024-03-25T12:48:07;4.45;;;1.38;;
23470;SDS011;11908;50.806;4.424;2024-03-25T12:50:33;4.95;;;1.58;;
23470;SDS011;11908;50.806;4.424;2024-03-25T12:52:59;4.57;;;1.13;;
23470;SDS011;11908;50.806;4.424;2024-03-25T12:55:25;4.07;;;1.30;;
23470;SDS011;11908;50.806;4.424;2024-03-25T12:57:51;4.13;;;1.40;;
23470;SDS011;11908;50.806;4.424;2024-03-25T13:00:16;3.50;;;1.20;;
23470;SDS011;11908;50.806;4.424;2024-03-25T13:02:42;1.92;;;0.90;;
23470;SDS011;11908;50.806;4.424;2024-03-25T13:05:09;3.10;;;1.48;;
23470;SDS011;11908;50.806;4.424;2024-03-25T13:07:34;2.65;;;1.30;;
23470;SDS011;11908;50.806;4.424;2024-03-25T13:10:00;4.47;;;1.67;;
23470;SDS011;11908;50.806;4.424;2024-03-25T13:12:26;5.07;;;1.55;;
23470;SDS011;11908;50.806;4.424;2024-03-25T13:14:52;4.70;;;1.60;;
23470;SDS011;11908;50.806;4.424;2024-03-25T13:17:17;7.47;;;1.60;;
23470;SDS011;11908;50.806;4.424;2024-03-25T13:19:43;6.95;;;1.58;;
23470;SDS011;11908;50.806;4.424;2024-03-25T13:22:09;4.35;;;1.42;;
23470;SDS011;11908;50.806;4.424;2024-03-25T13:24:34;3.83;;;1.20;;
23470;SDS011;11908;50.806;4.424;2024-03-25T13:27:00;3.40;;;1.63;;
23470;SDS011;11908;50.806;4.424;2024-03-25T13:29:26;2.42;;;1.35;;
23470;SDS011;11908;50.806;4.424;2024-03-25T13:31:51;3.00;;;1.40;;
23470;SDS011;11908;50.806;4.424;2024-03-25T13:34:17;5.75;;;1.20;;
23470;SDS011;11908;50.806;4.424;2024-03-25T13:36:42;2.42;;;1.23;;
23470;SDS011;11908;50.806;4.424;2024-03-25T13:39:08;4.97;;;1.73;;
23470;SDS011;11908;50.806;4.424;2024-03-25T13:41:35;2.47;;;1.33;;
23470;SDS011;11908;50.806;4.424;2024-03-25T13:44:00;4.85;;;1.50;;
23470;SDS011;11908;50.806;4.424;2024-03-25T13:46:26;3.08;;;1.40;;
23470;SDS011;11908;50.806;4.424;2024-03-25T13:48:52;4.40;;;1.80;;
23470;SDS011;11908;50.806;4.424;2024-03-25T13:51:17;4.25;;;1.60;;
23470;SDS011;11908;50.806;4.424;2024-03-25T13:53:43;3.15;;;1.67;;
23470;SDS011;11908;50.806;4.424;2024-03-25T13:56:09;2.88;;;1.27;;
23470;SDS011;11908;50.806;4.424;2024-03-25T13:58:34;7.22;;;1.63;;
23470;SDS011;11908;50.806;4.424;2024-03-25T14:01:00;4.35;;;1.65;;
23470;SDS011;11908;50.806;4.424;2024-03-25T14:03:26;6.80;;;1.80;;
23470;SDS011;11908;50.806;4.424;2024-03-25T14:05:51;5.63;;;1.48;;
23470;SDS011;11908;50.806;4.424;2024-03-25T14:08:17;4.25;;;1.48;;
23470;SDS011;11908;50.806;4.424;2024-03-25T14:10:43;3.28;;;1.42;;
23470;SDS011;11908;50.806;4.424;2024-03-25T14:13:09;4.88;;;1.50;;
23470;SDS011;11908;50.806;4.424;2024-03-25T14:15:35;7.07;;;1.48;;
23470;SDS011;11908;50.806;4.424;2024-03-25T14:18:00;5.03;;;1.50;;
23470;SDS011;11908;50.806;4.424;2024-03-25T14:20:26;2.28;;;1.20;;
23470;SDS011;11908;50.806;4.424;2024-03-25T14:22:52;3.30;;;1.25;;
23470;SDS011;11908;50.806;4.424;2024-03-25T14:25:17;3.08;;;1.15;;
23470;SDS011;11908;50.806;4.424;2024-03-25T14:27:44;3.90;;;1.30;;
23470;SDS011;11908;50.806;4.424;2024-03-25T14:30:10;3.03;;;1.63;;
23470;SDS011;11908;50.806;4.424;2024-03-25T14:32:36;6.03;;;1.35;;
23470;SDS011;11908;50.806;4.424;2024-03-25T14:35:05;3.03;;;1.30;;
23470;SDS011;11908;50.806;4.424;2024-03-25T14:37:31;3.05;;;1.33;;